ADDS METAR Data INFO
IDs: Format: Raw Decoded Include TAF

Data at: 1931 UTC 18 Feb 2018

KCSQ 181915Z AUTO 18027G40KT 10SM CLR 11/M04 A2975 RMK AO2
KCSQ 181855Z AUTO 18031G40KT 10SM CLR 11/M03 A2975 RMK AO2
KCSQ 181835Z AUTO 18030G41KT 10SM CLR 11/M04 A2977 RMK AO2
KCSQ 181815Z AUTO 18032KT 10SM CLR 11/M04 A2979 RMK AO2
KCSQ 181755Z AUTO 18026G35KT 10SM CLR 11/M04 A2982 RMK AO2
KCSQ 181735Z AUTO 18028G36KT 10SM CLR 10/M03 A2984 RMK AO2
KCSQ 181715Z AUTO 19029G40KT 10SM CLR 09/M03 A2985 RMK AO2
KCSQ 181655Z AUTO 19027G37KT 10SM CLR 08/M02 A2987 RMK AO2
KCSQ 181635Z AUTO 18026G32KT 10SM CLR 08/M01 A2989 RMK AO2
KCSQ 181615Z AUTO 18023G33KT 10SM CLR 07/M00 A2989 RMK AO2
KCSQ 181555Z AUTO 18027G36KT 10SM CLR 07/00 A2990 RMK AO2
KCSQ 181535Z AUTO 19031KT 10SM CLR 06/01 A2990 RMK AO2
KCSQ 181515Z AUTO 18024G33KT 10SM CLR 05/00 A2991 RMK AO2
KCSQ 181455Z AUTO 18021G27KT 10SM CLR 04/M00 A2993 RMK AO2
KCSQ 181435Z AUTO 18019G25KT 10SM CLR 03/M01 A2994 RMK AO2
KCSQ 181415Z AUTO 18017G23KT 10SM CLR 02/M02 A2996 RMK AO2
KCSQ 181355Z AUTO 18015KT 10SM CLR 02/M02 A2997 RMK AO2
KCSQ 181335Z AUTO 17015KT 10SM CLR 01/M03 A2997 RMK AO2
KCSQ 181315Z AUTO 16010KT 10SM CLR 00/M04 A2998 RMK AO2
KCSQ 181255Z AUTO 15009KT 10SM CLR M01/M05 A2999 RMK AO2
KCSQ 181235Z AUTO 16010KT 10SM CLR M00/M05 A3000 RMK AO2
KCSQ 181215Z AUTO 16013KT 10SM CLR 00/M05 A3000 RMK AO2
KCSQ 181155Z AUTO 16012G18KT 10SM CLR M00/M05 A3002 RMK AO2
KCSQ 181135Z AUTO 16013G18KT 10SM CLR M00/M05 A3003 RMK AO2
KCSQ 181115Z AUTO 16013KT 10SM CLR M01/M04 A3004 RMK AO2
KCSQ 181055Z AUTO 17013KT 10SM CLR M01/M04 A3005 RMK AO2
KCSQ 181035Z AUTO 16012KT 10SM CLR M01/M04 A3005 RMK AO2
KCSQ 181015Z AUTO 16010KT 10SM CLR M01/M04 A3006 RMK AO2
KCSQ 180955Z AUTO 16011KT 10SM CLR M01/M04 A3006 RMK AO2
KCSQ 180935Z AUTO 16010KT 10SM CLR M02/M04 A3006 RMK AO2
KCSQ 180915Z AUTO 16011KT 10SM CLR M02/M04 A3007 RMK AO2
KCSQ 180855Z AUTO 16008KT 10SM CLR M02/M04 A3008 RMK AO2
KCSQ 180835Z AUTO 17010KT 10SM CLR M02/M04 A3010 RMK AO2
KCSQ 180815Z AUTO 15008KT 10SM CLR M03/M05 A3009 RMK AO2
KCSQ 180755Z AUTO 14010KT 10SM CLR M03/M04 A3009 RMK AO2
KCSQ 180735Z AUTO 15007KT 10SM CLR M03/M05 A3011 RMK AO2
KCSQ 180715Z AUTO 14007KT 10SM CLR M04/M05 A3011 RMK AO2
KCSQ 180655Z AUTO 15008KT 10SM CLR M03/M04 A3012 RMK AO2
KCSQ 180635Z AUTO 15006KT 10SM CLR M04/M05 A3013 RMK AO2
KCSQ 180615Z AUTO 14006KT 10SM CLR M04/M05 A3013 RMK AO2
KCSQ 180555Z AUTO 13003KT 10SM CLR M05/M05 A3014 RMK AO2
KCSQ 180535Z AUTO 15005KT 10SM CLR M04/M05 A3014 RMK AO2
KCSQ 180515Z AUTO 14004KT 10SM CLR M03/M05 A3015 RMK AO2
KCSQ 180455Z AUTO 13003KT 10SM CLR M03/M05 A3015 RMK AO2
KCSQ 180435Z AUTO 14003KT 10SM CLR M03/M04 A3016 RMK AO2
KCSQ 180415Z AUTO 15003KT 10SM CLR M03/M05 A3016 RMK AO2
KCSQ 180355Z AUTO 00000KT 10SM CLR M01/M04 A3016 RMK AO2
KCSQ 180335Z AUTO 00000KT 10SM CLR M01/M04 A3016 RMK AO2
KCSQ 180315Z AUTO 35005KT 10SM CLR M01/M04 A3016 RMK AO2
KCSQ 180255Z AUTO 35007KT 10SM CLR M01/M04 A3016 RMK AO2
KCSQ 180235Z AUTO 36007KT 10SM CLR M01/M04 A3016 RMK AO2
KCSQ 180215Z AUTO 32007KT 10SM CLR M01/M04 A3016 RMK AO2
KCSQ 180155Z AUTO 33006KT 10SM CLR M01/M04 A3016 RMK AO2
KCSQ 180135Z AUTO 31007KT 10SM CLR M01/M04 A3016 RMK AO2
KCSQ 180115Z AUTO 33008KT 10SM CLR 00/M04 A3015 RMK AO2
KCSQ 180055Z AUTO 33009KT 10SM CLR 01/M03 A3014 RMK AO2
KCSQ 180035Z AUTO 34007KT 10SM CLR 01/M04 A3014 RMK AO2
KCSQ 180015Z AUTO 33007KT 10SM CLR 02/M04 A3013 RMK AO2
KCSQ 172355Z AUTO 31009KT 10SM CLR 02/M03 A3011 RMK AO2
KCSQ 172335Z AUTO 30012KT 10SM CLR 04/M03 A3010 RMK AO2
KCSQ 172315Z AUTO 31015KT 10SM CLR 05/M03 A3009 RMK AO2
KCSQ 172255Z AUTO 30017KT 10SM CLR 06/M04 A3009 RMK AO2
KCSQ 172235Z AUTO 31015G22KT 10SM CLR 06/M04 A3009 RMK AO2
KCSQ 172215Z AUTO 31019G24KT 10SM CLR 07/M05 A3008 RMK AO2
KCSQ 172155Z AUTO 29019KT 10SM CLR 07/M04 A3007 RMK AO2
KCSQ 172135Z AUTO 31018KT 10SM CLR 07/M04 A3006 RMK AO2
KCSQ 172115Z AUTO 30014G24KT 10SM CLR 07/M04 A3005 RMK AO2
KCSQ 172055Z AUTO 30018KT 10SM CLR 07/M04 A3003 RMK AO2
KCSQ 172035Z AUTO 31015G21KT 10SM CLR 07/M03 A3002 RMK AO2
KCSQ 172015Z AUTO 31015G22KT 10SM CLR 07/M02 A3001 RMK AO2
KCSQ 171955Z AUTO 31017KT 10SM CLR 06/M02 A3000 RMK AO2
KCSQ 171935Z AUTO 31016G22KT 10SM CLR 06/M02 A2999 RMK AO2
KCSQ 171915Z AUTO 29013KT 10SM CLR 05/M02 A3000 RMK AO2
KCSQ 171855Z AUTO 31016KT 10SM CLR 05/M02 A2999 RMK AO2
KCSQ 171835Z AUTO 31017KT 10SM CLR 04/M03 A2998 RMK AO2
KCSQ 171815Z AUTO 32018KT 10SM CLR 04/M03 A2998 RMK AO2
KCSQ 171755Z AUTO 31018KT 10SM CLR 03/M04 A2997 RMK AO2
KCSQ 171735Z AUTO 30014KT 10SM CLR 03/M04 A2997 RMK AO2
KCSQ 171715Z AUTO 29019KT 10SM FEW034 03/M05 A2996 RMK AO2
KCSQ 171655Z AUTO 29018G26KT 10SM BKN033 BKN075 BKN085 03/M06 A2996 RMK AO2
KCSQ 171635Z AUTO 28019KT 10SM FEW031 SCT042 BKN080 02/M07 A2995 RMK AO2
KCSQ 171615Z AUTO 25018G24KT 10SM FEW049 FEW060 FEW090 02/M07 A2994 RMK AO2
KCSQ 171555Z AUTO 24015KT 10SM SCT065 SCT075 BKN085 01/M07 A2994 RMK AO2
KCSQ 171535Z AUTO 23012G18KT 10SM FEW038 FEW075 SCT085 00/M08 A2993 RMK AO2
KCSQ 171515Z AUTO 22011KT 10SM FEW060 M00/M08 A2993 RMK AO2
KCSQ 171455Z AUTO 20012KT 10SM BKN065 BKN090 M01/M09 A2993 RMK AO2
KCSQ 171435Z AUTO 20012KT 10SM SCT065 OVC090 M01/M09 A2993 RMK AO2
KCSQ 171415Z AUTO 19012KT 10SM OVC065 M01/M09 A2993 RMK AO2
KCSQ 171355Z AUTO 19009KT 10SM OVC065 M02/M09 A2992 RMK AO2
KCSQ 171335Z AUTO 19008KT 10SM OVC070 M02/M10 A2992 RMK AO2
KCSQ 171315Z AUTO 20008KT 10SM OVC070 M02/M10 A2992 RMK AO2
KCSQ 171255Z AUTO 20006KT 10SM OVC070 M02/M11 A2992 RMK AO2
KCSQ 171235Z AUTO 19009KT 10SM OVC070 M02/M11 A2991 RMK AO2
KCSQ 171215Z AUTO 17009KT 10SM OVC075 M02/M11 A2991 RMK AO2
KCSQ 171155Z AUTO 17009KT 10SM SCT065 OVC075 M02/M12 A2992 RMK AO2
KCSQ 171135Z AUTO 16009KT 10SM SCT065 OVC075 M02/M12 A2994 RMK AO2
KCSQ 171115Z AUTO 18011KT 10SM BKN075 OVC090 M02/M12 A2996 RMK AO2
KCSQ 171055Z AUTO 18013KT 10SM FEW075 OVC090 M03/M12 A2997 RMK AO2
KCSQ 171035Z AUTO 18012G17KT 10SM SCT013 OVC085 M03/M12 A2998 RMK AO2
KCSQ 171015Z AUTO 18011KT 10SM OVC090 M03/M12 A3000 RMK AO2
KCSQ 170955Z AUTO 18010KT 10SM FEW080 OVC090 M03/M12 A3001 RMK AO2
KCSQ 170935Z AUTO 19009KT 10SM OVC090 M03/M12 A3002 RMK AO2
KCSQ 170915Z AUTO 19012KT 10SM OVC095 M03/M12 A3003 RMK AO2
KCSQ 170855Z AUTO 19011KT 10SM OVC095 M03/M12 A3003 RMK AO2
KCSQ 170835Z AUTO 17011KT 10SM OVC095 M03/M13 A3003 RMK AO2
KCSQ 170815Z AUTO 18012KT 10SM OVC095 M03/M12 A3005 RMK AO2
KCSQ 170755Z AUTO 18009KT 10SM OVC095 M03/M12 A3006 RMK AO2
KCSQ 170735Z AUTO 18011KT 10SM OVC090 M04/M12 A3007 RMK AO2